createdAt,value
2023-05-14T00:00:59.847Z,18.80
2023-05-14T00:03:28.266Z,18.77
2023-05-14T00:05:56.088Z,18.72
2023-05-14T00:08:25.275Z,18.68
2023-05-14T00:10:53.983Z,18.62
2023-05-14T00:13:21.736Z,18.61
2023-05-14T00:15:49.497Z,18.56
2023-05-14T00:18:17.760Z,18.53
2023-05-14T00:20:45.578Z,18.52
2023-05-14T00:23:13.593Z,18.50
2023-05-14T00:25:43.306Z,18.49
2023-05-14T00:28:11.089Z,18.49
2023-05-14T00:30:39.733Z,18.46
2023-05-14T00:33:08.332Z,18.48
2023-05-14T00:35:36.267Z,18.48
2023-05-14T00:38:04.792Z,18.48
2023-05-14T00:40:33.269Z,18.50
2023-05-14T00:43:02.521Z,18.53
2023-05-14T00:45:30.318Z,18.54
2023-05-14T00:47:58.747Z,18.57
2023-05-14T00:50:27.112Z,18.58
2023-05-14T00:52:55.022Z,18.60
2023-05-14T00:55:24.264Z,18.60
2023-05-14T00:57:52.302Z,18.61
2023-05-14T01:00:22.129Z,18.62
2023-05-14T01:02:50.599Z,18.62
2023-05-14T01:05:18.680Z,18.61
2023-05-14T01:07:56.781Z,18.60
2023-05-14T01:10:30.043Z,18.60
2023-05-14T01:13:05.085Z,18.58
2023-05-14T01:15:37.087Z,18.54
2023-05-14T01:18:08.067Z,18.48
2023-05-14T01:20:36.447Z,18.47
2023-05-14T01:23:05.956Z,18.43
2023-05-14T01:25:34.281Z,18.41
2023-05-14T01:28:08.059Z,18.35
2023-05-14T01:30:38.530Z,18.27
2023-05-14T01:33:11.114Z,18.26
2023-05-14T01:35:39.777Z,18.24
2023-05-14T01:38:12.314Z,18.20
2023-05-14T01:40:41.394Z,18.15
2023-05-14T01:43:09.702Z,18.11
2023-05-14T01:45:38.298Z,18.10
2023-05-14T01:48:07.240Z,18.08
2023-05-14T01:50:35.107Z,18.06
2023-05-14T01:53:02.925Z,18.07
2023-05-14T01:55:32.125Z,18.07
2023-05-14T01:57:59.940Z,18.08
2023-05-14T02:00:28.168Z,18.06
2023-05-14T02:02:56.509Z,18.02
2023-05-14T02:05:24.396Z,18.00
2023-05-14T02:07:52.823Z,17.96
2023-05-14T02:10:21.256Z,17.96
2023-05-14T02:12:50.542Z,17.95
2023-05-14T02:15:18.408Z,17.95
2023-05-14T02:17:46.966Z,17.94
2023-05-14T02:20:15.093Z,17.90
2023-05-14T02:22:45.658Z,17.86
2023-05-14T02:25:14.216Z,17.80
2023-05-14T02:27:42.011Z,17.77
2023-05-14T02:30:12.650Z,17.63
2023-05-14T02:32:40.567Z,17.65
2023-05-14T02:35:09.264Z,17.66
2023-05-14T02:37:37.040Z,17.65
2023-05-14T02:40:05.729Z,17.60
2023-05-14T02:42:33.506Z,17.60
2023-05-14T02:45:01.271Z,17.63
2023-05-14T02:47:31.011Z,17.63
2023-05-14T02:49:58.824Z,17.60
2023-05-14T02:52:26.639Z,17.60
2023-05-14T02:54:54.456Z,17.57
2023-05-14T02:57:22.239Z,17.59
2023-05-14T02:59:50.033Z,17.56
2023-05-14T03:02:18.722Z,17.54
2023-05-14T03:04:48.273Z,17.57
2023-05-14T03:07:16.056Z,17.56
2023-05-14T03:09:44.282Z,17.50
2023-05-14T03:12:12.695Z,17.51
2023-05-14T03:14:40.505Z,17.49
2023-05-14T03:17:09.012Z,17.48
2023-05-14T03:19:36.900Z,17.44
2023-05-14T03:22:06.269Z,17.51
2023-05-14T03:24:34.623Z,17.50
2023-05-14T03:27:02.389Z,17.51
2023-05-14T03:29:30.504Z,17.52
2023-05-14T03:31:58.937Z,17.53
2023-05-14T03:34:26.803Z,17.54
2023-05-14T03:36:54.561Z,17.51
2023-05-14T03:39:24.212Z,17.52
2023-05-14T03:41:51.776Z,17.55
2023-05-14T03:44:19.648Z,17.52
2023-05-14T03:46:47.970Z,17.51
2023-05-14T03:49:15.784Z,17.51
2023-05-14T03:51:43.550Z,17.50
2023-05-14T03:54:11.833Z,17.48
2023-05-14T03:56:41.144Z,17.48
2023-05-14T03:59:08.930Z,17.49
2023-05-14T04:01:37.424Z,17.43
2023-05-14T04:04:05.589Z,17.46
2023-05-14T04:06:34.146Z,17.48
2023-05-14T04:09:02.544Z,17.46
2023-05-14T04:11:30.316Z,17.47
2023-05-14T04:13:59.457Z,17.49
2023-05-14T04:16:27.846Z,17.51
2023-05-14T04:18:55.768Z,17.52
2023-05-14T04:21:23.568Z,17.49
2023-05-14T04:23:52.129Z,17.45
2023-05-14T04:26:20.085Z,17.43
2023-05-14T04:28:47.900Z,17.44
2023-05-14T04:31:17.519Z,17.45
2023-05-14T04:33:45.120Z,17.41
2023-05-14T04:36:12.882Z,17.46
2023-05-14T04:38:42.098Z,17.40
2023-05-14T04:41:09.876Z,17.37
2023-05-14T04:43:37.625Z,17.37
2023-05-14T04:46:06.219Z,17.34
2023-05-14T04:48:35.380Z,17.33
2023-05-14T04:51:04.974Z,17.33
2023-05-14T04:53:34.634Z,17.35
2023-05-14T04:56:02.391Z,17.34
2023-05-14T04:58:34.617Z,17.33
2023-05-14T05:01:04.411Z,17.34
2023-05-14T05:03:32.247Z,17.34
2023-05-14T05:06:01.465Z,17.35
2023-05-14T05:08:29.702Z,17.33
2023-05-14T05:10:57.520Z,17.35
2023-05-14T05:13:25.342Z,17.33
2023-05-14T05:15:53.157Z,17.36
2023-05-14T05:18:20.965Z,17.35
2023-05-14T05:20:48.786Z,17.33
2023-05-14T05:23:18.491Z,17.36
2023-05-14T05:25:46.233Z,17.33
2023-05-14T05:28:13.997Z,17.34
2023-05-14T05:30:42.452Z,17.36
2023-05-14T05:33:10.351Z,17.35
2023-05-14T05:35:38.298Z,17.31
2023-05-14T05:38:06.480Z,17.35
2023-05-14T05:40:35.697Z,17.30
2023-05-14T05:43:03.449Z,17.29
2023-05-14T05:45:31.853Z,17.31
2023-05-14T05:47:59.710Z,17.31
2023-05-14T05:50:27.588Z,17.30
2023-05-14T05:52:55.826Z,17.33
2023-05-14T05:55:23.772Z,17.33
2023-05-14T05:57:52.992Z,17.30
2023-05-14T06:00:22.356Z,17.31
2023-05-14T06:02:50.480Z,17.31
2023-05-14T06:05:19.258Z,17.30
2023-05-14T06:07:47.689Z,17.27
2023-05-14T06:10:15.473Z,17.28
2023-05-14T06:12:43.260Z,17.25
2023-05-14T06:15:13.697Z,17.24
2023-05-14T06:17:41.555Z,17.23
2023-05-14T06:20:10.163Z,17.24
2023-05-14T06:22:38.636Z,17.25
2023-05-14T06:25:07.065Z,17.23
2023-05-14T06:27:34.847Z,17.23
2023-05-14T06:30:03.144Z,17.23
2023-05-14T06:32:32.386Z,17.19
2023-05-14T06:35:01.876Z,17.21
2023-05-14T06:37:30.200Z,17.20
2023-05-14T06:39:58.149Z,17.20
2023-05-14T06:42:26.367Z,17.22
2023-05-14T06:44:55.055Z,17.20
2023-05-14T06:47:23.003Z,17.20
2023-05-14T06:49:52.251Z,17.25
2023-05-14T06:52:20.757Z,17.25
2023-05-14T06:54:48.520Z,17.25
2023-05-14T06:57:16.289Z,17.24
2023-05-14T06:59:44.701Z,17.26
2023-05-14T07:02:13.206Z,17.26
2023-05-14T07:04:41.248Z,17.27
2023-05-14T07:07:15.600Z,17.27
2023-05-14T07:09:43.407Z,17.26
2023-05-14T07:12:11.276Z,17.28
2023-05-14T07:14:39.612Z,17.27
2023-05-14T07:17:07.469Z,17.27
2023-05-14T07:19:35.306Z,17.28
2023-05-14T07:22:03.720Z,17.26
2023-05-14T07:24:32.872Z,17.30
2023-05-14T07:27:01.877Z,17.30
2023-05-14T07:29:30.623Z,17.30
2023-05-14T07:31:58.402Z,17.32
2023-05-14T07:34:26.163Z,17.32
2023-05-14T07:36:54.821Z,17.31
2023-05-14T07:39:22.663Z,17.33
2023-05-14T07:41:52.021Z,17.28
2023-05-14T07:44:20.398Z,17.27
2023-05-14T07:46:48.198Z,17.27
2023-05-14T07:49:16.001Z,17.26
2023-05-14T07:51:44.091Z,17.26
2023-05-14T07:54:12.338Z,17.27
2023-05-14T07:56:40.156Z,17.28
2023-05-14T07:59:09.857Z,17.30
2023-05-14T08:01:39.335Z,17.30
2023-05-14T08:04:07.510Z,17.35
2023-05-14T08:06:36.189Z,17.35
2023-05-14T08:09:05.327Z,17.34
2023-05-14T08:11:33.161Z,17.32
2023-05-14T08:14:01.461Z,17.22
2023-05-14T08:16:30.640Z,17.28
2023-05-14T08:18:58.469Z,17.29
2023-05-14T08:21:26.852Z,17.30
2023-05-14T08:23:54.674Z,17.35
2023-05-14T08:26:22.860Z,17.38
2023-05-14T08:28:51.137Z,17.41
2023-05-14T08:31:18.925Z,17.44
2023-05-14T08:33:48.082Z,17.46
2023-05-14T08:36:16.423Z,17.52
2023-05-14T08:38:45.329Z,17.57
2023-05-14T08:41:14.917Z,17.60
2023-05-14T08:43:45.992Z,17.68
2023-05-14T08:46:16.027Z,17.69
2023-05-14T08:48:49.586Z,17.72
2023-05-14T08:51:18.844Z,17.65
2023-05-14T08:53:46.675Z,17.60
2023-05-14T08:56:16.813Z,17.59
2023-05-14T08:58:44.622Z,17.56
2023-05-14T09:01:12.416Z,17.64
2023-05-14T09:03:41.739Z,17.68
2023-05-14T09:06:10.444Z,17.70
2023-05-14T09:08:39.778Z,17.81
2023-05-14T09:11:08.383Z,17.77
2023-05-14T09:13:41.007Z,17.85
2023-05-14T09:16:09.645Z,17.88
2023-05-14T09:18:37.975Z,17.91
2023-05-14T09:21:06.092Z,18.00
2023-05-14T09:23:35.260Z,18.10
2023-05-14T09:26:06.958Z,18.22
2023-05-14T09:28:34.753Z,18.32
2023-05-14T09:31:04.240Z,18.43
2023-05-14T09:33:32.844Z,18.58
2023-05-14T09:36:01.284Z,18.63
2023-05-14T09:38:32.362Z,18.71
2023-05-14T09:41:00.768Z,18.75
2023-05-14T09:43:29.908Z,18.78
2023-05-14T09:45:57.684Z,18.80
2023-05-14T09:48:26.363Z,18.84
2023-05-14T09:50:54.197Z,18.92
2023-05-14T09:53:22.216Z,18.99
2023-05-14T09:55:53.224Z,19.00
2023-05-14T09:58:21.326Z,19.06
2023-05-14T10:00:52.068Z,19.21
2023-05-14T10:03:21.344Z,19.29
2023-05-14T10:05:51.092Z,19.42
2023-05-14T10:08:23.451Z,19.53
2023-05-14T10:10:54.760Z,19.64
2023-05-14T10:13:28.382Z,19.75
2023-05-14T10:16:02.896Z,19.85
2023-05-14T10:18:37.188Z,19.95
2023-05-14T10:21:06.731Z,20.02
2023-05-14T10:23:34.656Z,20.14
2023-05-14T10:26:03.812Z,20.23
2023-05-14T10:28:32.827Z,20.28
2023-05-14T10:31:02.038Z,20.32
2023-05-14T10:33:30.299Z,20.36
2023-05-14T10:36:01.033Z,20.29
2023-05-14T10:38:29.830Z,20.36
2023-05-14T10:41:00.036Z,20.44
2023-05-14T10:43:29.334Z,20.46
2023-05-14T10:45:57.446Z,20.52
2023-05-14T10:48:27.569Z,20.57
2023-05-14T10:50:57.730Z,20.63
2023-05-14T10:53:34.517Z,20.66
2023-05-14T10:56:07.456Z,20.74
2023-05-14T10:58:39.110Z,20.80
2023-05-14T11:01:08.446Z,20.85
2023-05-14T11:03:43.300Z,20.98
2023-05-14T11:06:12.199Z,21.03
2023-05-14T11:08:40.975Z,21.13
2023-05-14T11:11:10.725Z,21.18
2023-05-14T11:13:38.630Z,21.29
2023-05-14T11:18:41.061Z,21.48
2023-05-14T11:21:10.251Z,21.55
2023-05-14T11:23:38.055Z,21.59
2023-05-14T11:26:06.399Z,21.62
2023-05-14T11:28:34.222Z,21.70
2023-05-14T11:31:02.199Z,21.78
2023-05-14T11:33:31.155Z,21.83
2023-05-14T11:35:58.924Z,21.85
2023-05-14T11:38:28.077Z,21.92
2023-05-14T11:40:56.906Z,21.94
2023-05-14T11:43:25.188Z,22.05
2023-05-14T11:45:53.918Z,22.06
2023-05-14T11:48:22.615Z,22.06
2023-05-14T11:50:52.407Z,22.04
2023-05-14T11:53:20.831Z,22.10
2023-05-14T11:55:50.554Z,22.23
2023-05-14T11:58:19.526Z,22.33
2023-05-14T12:00:47.902Z,22.41
2023-05-14T12:03:16.367Z,22.48
2023-05-14T12:05:57.035Z,22.59
2023-05-14T12:08:28.548Z,22.67
2023-05-14T12:10:59.607Z,22.73
2023-05-14T12:13:27.853Z,22.79
2023-05-14T12:15:57.814Z,22.84
2023-05-14T12:18:26.427Z,22.92
2023-05-14T12:20:54.262Z,22.98
2023-05-14T12:23:27.157Z,23.06
2023-05-14T12:25:54.920Z,23.03
2023-05-14T12:28:24.704Z,23.05
2023-05-14T12:30:57.756Z,23.17
2023-05-14T12:33:26.575Z,23.18
2023-05-14T12:35:58.967Z,23.23
2023-05-14T12:38:28.581Z,23.26
2023-05-14T12:40:56.862Z,23.31
2023-05-14T12:43:30.175Z,23.34
2023-05-14T12:45:58.083Z,23.40
2023-05-14T12:48:26.582Z,23.38
2023-05-14T12:50:54.721Z,23.43
2023-05-14T12:53:22.525Z,23.43
2023-05-14T12:55:50.326Z,23.43
2023-05-14T12:58:18.434Z,23.43
2023-05-14T13:00:47.674Z,23.44
2023-05-14T13:03:15.604Z,23.34
2023-05-14T13:05:43.628Z,23.34
2023-05-14T13:08:14.666Z,23.24
2023-05-14T13:10:42.435Z,23.31
2023-05-14T13:13:10.445Z,23.37
2023-05-14T13:15:38.653Z,23.40
2023-05-14T13:18:08.190Z,23.43
2023-05-14T13:20:36.403Z,23.50
2023-05-14T13:23:04.215Z,23.57
2023-05-14T13:25:32.026Z,23.64
2023-05-14T13:28:00.115Z,23.73
2023-05-14T13:30:27.986Z,23.72
2023-05-14T13:32:55.918Z,23.69
2023-05-14T13:35:25.487Z,23.74
2023-05-14T13:37:53.458Z,23.78
2023-05-14T13:40:21.354Z,23.81
2023-05-14T13:42:49.397Z,23.83
2023-05-14T13:45:17.206Z,23.87
2023-05-14T13:47:45.043Z,23.91
2023-05-14T13:50:13.445Z,23.95
2023-05-14T13:52:42.596Z,23.98
2023-05-14T13:55:10.742Z,24.01
2023-05-14T13:57:39.963Z,24.03
2023-05-14T14:00:11.114Z,24.06
2023-05-14T14:02:38.938Z,24.04
2023-05-14T14:05:07.991Z,24.07
2023-05-14T14:07:35.854Z,24.08
2023-05-14T14:10:05.674Z,24.13
2023-05-14T14:12:34.089Z,24.12
2023-05-14T14:15:02.841Z,24.15
2023-05-14T14:17:30.801Z,24.13
2023-05-14T14:19:59.004Z,24.06
2023-05-14T14:22:28.983Z,24.10
2023-05-14T14:24:57.205Z,24.10
2023-05-14T14:27:26.994Z,24.13
2023-05-14T14:29:56.727Z,24.13
2023-05-14T14:32:24.528Z,24.15
2023-05-14T14:34:52.884Z,24.14
2023-05-14T14:37:21.279Z,24.17
2023-05-14T14:39:50.811Z,24.17
2023-05-14T14:42:18.663Z,24.17
2023-05-14T14:44:47.834Z,24.14
2023-05-14T14:47:15.648Z,24.12
2023-05-14T14:49:44.081Z,24.07
2023-05-14T14:52:11.916Z,24.06
2023-05-14T14:54:39.711Z,23.98
2023-05-14T14:57:08.070Z,24.00
2023-05-14T14:59:36.333Z,23.88
2023-05-14T15:02:06.404Z,23.93
2023-05-14T15:04:35.320Z,23.89
2023-05-14T15:07:03.415Z,23.86
2023-05-14T15:09:31.334Z,23.92
2023-05-14T15:11:59.731Z,23.92
2023-05-14T15:14:27.942Z,23.90
2023-05-14T15:16:55.816Z,23.95
2023-05-14T15:19:25.578Z,23.92
2023-05-14T15:21:53.754Z,23.86
2023-05-14T15:24:23.893Z,23.71
2023-05-14T15:26:53.428Z,23.63
2023-05-14T15:29:21.596Z,23.56
2023-05-14T15:31:49.376Z,23.52
2023-05-14T15:34:17.767Z,23.56
2023-05-14T15:36:46.944Z,23.42
2023-05-14T15:39:14.737Z,23.42
2023-05-14T15:41:43.114Z,23.34
2023-05-14T15:44:10.899Z,23.28
2023-05-14T15:46:38.899Z,23.39
2023-05-14T15:49:07.316Z,23.40
2023-05-14T15:51:35.888Z,23.46
2023-05-14T15:54:05.075Z,23.46
2023-05-14T15:56:33.469Z,23.49
2023-05-14T15:59:01.250Z,23.49
2023-05-14T16:01:29.134Z,23.42
2023-05-14T16:03:57.564Z,23.44
2023-05-14T16:06:26.365Z,23.45
2023-05-14T16:08:54.448Z,23.39
2023-05-14T16:11:24.184Z,23.26
2023-05-14T16:13:51.974Z,23.25
2023-05-14T16:16:20.733Z,23.24
2023-05-14T16:18:49.081Z,23.21
2023-05-14T16:21:16.936Z,22.92
2023-05-14T16:23:44.691Z,22.94
2023-05-14T16:26:13.051Z,22.88
2023-05-14T16:28:42.777Z,22.89
2023-05-14T16:31:10.574Z,22.86
2023-05-14T16:33:38.881Z,22.85
2023-05-14T16:36:07.095Z,22.85
2023-05-14T16:38:38.520Z,22.80
2023-05-14T16:41:10.351Z,22.76
2023-05-14T16:43:38.122Z,22.72
2023-05-14T16:46:07.419Z,22.70
2023-05-14T16:48:35.952Z,22.67
2023-05-14T16:51:03.763Z,22.69
2023-05-14T16:53:31.558Z,22.64
2023-05-14T16:55:59.939Z,22.63
2023-05-14T16:58:28.402Z,22.60
2023-05-14T17:00:56.234Z,22.60
2023-05-14T17:03:25.522Z,22.58
2023-05-14T17:05:53.485Z,22.56
2023-05-14T17:08:21.294Z,22.54
2023-05-14T17:10:49.697Z,22.49
2023-05-14T17:13:17.738Z,22.44
2023-05-14T17:15:45.549Z,22.38
2023-05-14T17:18:13.967Z,22.18
2023-05-14T17:20:43.158Z,22.12
2023-05-14T17:23:10.897Z,22.16
2023-05-14T17:25:39.399Z,22.10
2023-05-14T17:28:07.206Z,22.03
2023-05-14T17:30:34.992Z,22.01
2023-05-14T17:33:03.416Z,22.01
2023-05-14T17:35:35.678Z,22.00
2023-05-14T17:38:05.434Z,21.95
2023-05-14T17:40:33.470Z,21.87
2023-05-14T17:43:01.378Z,21.82
2023-05-14T17:45:36.380Z,21.79
2023-05-14T17:48:10.756Z,21.76
2023-05-14T17:50:39.795Z,21.73
2023-05-14T17:53:08.911Z,21.66
2023-05-14T17:55:42.663Z,21.60
2023-05-14T17:58:11.366Z,21.54
2023-05-14T18:00:39.461Z,21.50
2023-05-14T18:03:08.048Z,21.46
2023-05-14T18:05:36.111Z,21.38
2023-05-14T18:08:03.868Z,21.37
2023-05-14T18:10:33.297Z,21.27
2023-05-14T18:13:01.108Z,21.25
2023-05-14T18:15:29.301Z,21.18
2023-05-14T18:17:57.141Z,21.15
2023-05-14T18:20:24.993Z,21.08
2023-05-14T18:22:52.794Z,21.07
2023-05-14T18:25:20.905Z,21.02
2023-05-14T18:27:50.055Z,20.99
2023-05-14T18:30:17.878Z,20.93
2023-05-14T18:32:46.842Z,20.87
2023-05-14T18:35:14.820Z,20.83
2023-05-14T18:37:42.582Z,20.82
2023-05-14T18:40:16.355Z,20.74
2023-05-14T18:42:46.207Z,20.69
2023-05-14T18:45:15.631Z,20.60
2023-05-14T18:47:43.495Z,20.55
2023-05-14T18:50:11.818Z,20.51
2023-05-14T18:52:39.767Z,20.45
2023-05-14T18:55:08.211Z,20.38
2023-05-14T18:57:37.601Z,20.33
2023-05-14T19:00:06.403Z,20.32
2023-05-14T19:02:36.021Z,20.31
2023-05-14T19:05:04.057Z,20.27
2023-05-14T19:07:32.435Z,20.23
2023-05-14T19:10:00.430Z,20.22
2023-05-14T19:12:28.825Z,20.12
2023-05-14T19:14:56.649Z,20.14
2023-05-14T19:17:25.038Z,20.06
2023-05-14T19:19:54.456Z,20.03
2023-05-14T19:22:22.846Z,19.94
2023-05-14T19:27:24.703Z,19.89
2023-05-14T19:29:52.533Z,19.87
2023-05-14T19:32:20.310Z,19.80
2023-05-14T19:34:49.500Z,19.76
2023-05-14T19:37:20.072Z,19.74
2023-05-14T19:39:48.584Z,19.69
2023-05-14T19:42:16.499Z,19.66
2023-05-14T19:44:44.314Z,19.62
2023-05-14T19:47:12.800Z,19.56
2023-05-14T19:49:40.714Z,19.51
2023-05-14T19:52:08.531Z,19.45
2023-05-14T19:54:38.395Z,19.43
2023-05-14T19:57:06.983Z,19.38
2023-05-14T19:59:34.810Z,19.37
2023-05-14T20:02:03.236Z,19.36
2023-05-14T20:04:31.101Z,19.35
2023-05-14T20:06:58.942Z,19.31
2023-05-14T20:09:27.646Z,19.30
2023-05-14T20:11:56.763Z,19.27
2023-05-14T20:14:24.599Z,19.25
2023-05-14T20:16:53.562Z,19.25
2023-05-14T20:19:22.169Z,19.23
2023-05-14T20:21:50.052Z,19.23
2023-05-14T20:24:18.062Z,19.20
2023-05-14T20:26:45.819Z,19.17
2023-05-14T20:29:15.642Z,19.19
2023-05-14T20:31:43.632Z,19.16
2023-05-14T20:34:11.373Z,19.17
2023-05-14T20:36:39.137Z,19.13
2023-05-14T20:39:07.365Z,19.14
2023-05-14T20:41:35.417Z,19.13
2023-05-14T20:44:03.160Z,19.10
2023-05-14T20:46:32.576Z,19.10
2023-05-14T20:49:01.920Z,19.10
2023-05-14T20:51:29.687Z,19.08
2023-05-14T20:53:57.659Z,19.09
2023-05-14T20:56:26.352Z,19.09
2023-05-14T20:58:54.114Z,19.09
2023-05-14T21:01:22.759Z,19.07
2023-05-14T21:03:52.140Z,19.07
2023-05-14T21:06:20.092Z,19.06
2023-05-14T21:08:47.901Z,19.04
2023-05-14T21:11:15.658Z,19.03
2023-05-14T21:13:44.174Z,19.02
2023-05-14T21:16:12.965Z,18.99
2023-05-14T21:18:40.855Z,19.00
2023-05-14T21:21:10.096Z,18.98
2023-05-14T21:23:38.429Z,18.97
2023-05-14T21:26:06.359Z,18.98
2023-05-14T21:28:34.171Z,18.98
2023-05-14T21:31:02.382Z,18.96
2023-05-14T21:33:30.167Z,18.97
2023-05-14T21:35:57.988Z,18.98
2023-05-14T21:38:27.918Z,18.98
2023-05-14T21:40:55.690Z,18.97
2023-05-14T21:43:23.496Z,18.96
2023-05-14T21:45:51.997Z,18.95
2023-05-14T21:48:20.834Z,18.93
2023-05-14T21:50:48.713Z,18.93
2023-05-14T21:53:17.111Z,18.91
2023-05-14T21:55:46.343Z,18.86
2023-05-14T21:58:14.213Z,18.84
2023-05-14T22:00:42.488Z,18.81
2023-05-14T22:03:10.415Z,18.76
2023-05-14T22:05:38.289Z,18.71
2023-05-14T22:08:07.177Z,18.70
2023-05-14T22:10:36.015Z,18.66
2023-05-14T22:13:05.164Z,18.63
2023-05-14T22:15:33.497Z,18.60
2023-05-14T22:18:03.085Z,18.61
2023-05-14T22:20:30.730Z,18.66
2023-05-14T22:22:59.083Z,18.66
2023-05-14T22:25:27.230Z,18.61
2023-05-14T22:27:55.161Z,18.58
2023-05-14T22:30:25.067Z,18.56
2023-05-14T22:32:52.879Z,18.54
2023-05-14T22:35:21.251Z,18.50
2023-05-14T22:37:49.576Z,18.47
2023-05-14T22:40:17.338Z,18.44
2023-05-14T22:42:45.234Z,18.44
2023-05-14T22:45:13.693Z,18.41
2023-05-14T22:47:42.884Z,18.41
2023-05-14T22:50:12.121Z,18.40
2023-05-14T22:52:40.692Z,18.38
2023-05-14T22:55:09.309Z,18.36
2023-05-14T22:57:37.163Z,18.33
2023-05-14T23:00:07.559Z,18.32
2023-05-14T23:02:35.754Z,18.30
2023-05-14T23:05:05.434Z,18.29
2023-05-14T23:07:33.621Z,18.33
2023-05-14T23:10:01.836Z,18.31
2023-05-14T23:12:29.669Z,18.27
2023-05-14T23:14:59.616Z,18.24
2023-05-14T23:17:27.851Z,18.18
2023-05-14T23:19:55.806Z,18.15
2023-05-14T23:22:25.533Z,18.11
2023-05-14T23:24:53.306Z,18.08
2023-05-14T23:27:21.070Z,18.04
2023-05-14T23:29:49.520Z,17.99
2023-05-14T23:32:17.297Z,17.95
2023-05-14T23:34:45.079Z,17.93
2023-05-14T23:37:13.555Z,17.88
2023-05-14T23:39:42.718Z,17.84
2023-05-14T23:42:12.030Z,17.83
2023-05-14T23:44:40.311Z,17.78
2023-05-14T23:47:08.784Z,17.74
2023-05-14T23:49:36.686Z,17.71
2023-05-14T23:52:05.269Z,17.68
2023-05-14T23:54:33.037Z,17.61
2023-05-14T23:57:05.045Z,17.60
2023-05-14T23:59:33.464Z,17.54
